sensor_id;sensor_type;location;lat;lon;timestamp;temperature;humidity
21508;DHT22;10915;54.352;9.074;2023-08-06T00:01:14;16.00;99.90
21508;DHT22;10915;54.352;9.074;2023-08-06T00:03:40;16.10;99.90
21508;DHT22;10915;54.352;9.074;2023-08-06T00:06:06;16.10;99.90
21508;DHT22;10915;54.352;9.074;2023-08-06T00:08:32;16.20;99.90
21508;DHT22;10915;54.352;9.074;2023-08-06T00:10:57;16.30;99.90
21508;DHT22;10915;54.352;9.074;2023-08-06T00:13:23;16.30;99.90
21508;DHT22;10915;54.352;9.074;2023-08-06T00:15:49;16.40;99.90
21508;DHT22;10915;54.352;9.074;2023-08-06T00:18:14;16.40;99.90
21508;DHT22;10915;54.352;9.074;2023-08-06T00:20:40;16.40;99.90
21508;DHT22;10915;54.352;9.074;2023-08-06T00:23:07;16.40;99.90
21508;DHT22;10915;54.352;9.074;2023-08-06T00:25:33;16.30;99.90
21508;DHT22;10915;54.352;9.074;2023-08-06T00:27:59;16.30;99.90
21508;DHT22;10915;54.352;9.074;2023-08-06T00:30:24;16.00;99.90
21508;DHT22;10915;54.352;9.074;2023-08-06T00:32:50;16.00;99.90
21508;DHT22;10915;54.352;9.074;2023-08-06T00:35:16;16.00;99.90
21508;DHT22;10915;54.352;9.074;2023-08-06T00:37:41;16.10;99.90
21508;DHT22;10915;54.352;9.074;2023-08-06T00:40:07;16.20;99.90
21508;DHT22;10915;54.352;9.074;2023-08-06T00:42:34;16.20;99.90
21508;DHT22;10915;54.352;9.074;2023-08-06T00:45:00;16.20;99.90
21508;DHT22;10915;54.352;9.074;2023-08-06T00:47:26;16.20;99.90
21508;DHT22;10915;54.352;9.074;2023-08-06T00:49:52;16.30;99.90
21508;DHT22;10915;54.352;9.074;2023-08-06T00:52:18;16.30;99.90
21508;DHT22;10915;54.352;9.074;2023-08-06T00:54:44;16.40;99.90
21508;DHT22;10915;54.352;9.074;2023-08-06T00:57:09;16.40;99.90
21508;DHT22;10915;54.352;9.074;2023-08-06T00:59:36;16.40;99.90
21508;DHT22;10915;54.352;9.074;2023-08-06T01:02:02;16.50;99.90
21508;DHT22;10915;54.352;9.074;2023-08-06T01:04:27;16.50;99.90
21508;DHT22;10915;54.352;9.074;2023-08-06T01:12:34;16.30;99.90
21508;DHT22;10915;54.352;9.074;2023-08-06T01:15:21;16.30;99.90
21508;DHT22;10915;54.352;9.074;2023-08-06T01:17:48;16.30;99.90
21508;DHT22;10915;54.352;9.074;2023-08-06T01:20:14;16.30;99.90
21508;DHT22;10915;54.352;9.074;2023-08-06T01:22:41;16.30;99.90
21508;DHT22;10915;54.352;9.074;2023-08-06T01:25:40;16.30;99.90
21508;DHT22;10915;54.352;9.074;2023-08-06T01:31:02;16.10;99.90
21508;DHT22;10915;54.352;9.074;2023-08-06T01:34:01;16.10;99.90
21508;DHT22;10915;54.352;9.074;2023-08-06T01:36:35;16.20;99.90
21508;DHT22;10915;54.352;9.074;2023-08-06T01:48:20;16.10;99.90
21508;DHT22;10915;54.352;9.074;2023-08-06T01:51:00;16.10;99.90
21508;DHT22;10915;54.352;9.074;2023-08-06T01:53:36;16.20;99.90
21508;DHT22;10915;54.352;9.074;2023-08-06T01:59:37;16.20;99.90
21508;DHT22;10915;54.352;9.074;2023-08-06T02:02:22;16.10;99.90
21508;DHT22;10915;54.352;9.074;2023-08-06T04:19:33;15.10;99.90
21508;DHT22;10915;54.352;9.074;2023-08-06T04:22:28;15.00;99.90
21508;DHT22;10915;54.352;9.074;2023-08-06T04:25:42;15.00;99.90
21508;DHT22;10915;54.352;9.074;2023-08-06T04:29:05;15.10;99.90
21508;DHT22;10915;54.352;9.074;2023-08-06T04:32:13;15.20;99.90
21508;DHT22;10915;54.352;9.074;2023-08-06T04:42:16;15.40;99.90
21508;DHT22;10915;54.352;9.074;2023-08-06T04:55:03;15.40;99.90
21508;DHT22;10915;54.352;9.074;2023-08-06T04:57:53;15.40;99.90
21508;DHT22;10915;54.352;9.074;2023-08-06T05:07:10;15.60;99.90
21508;DHT22;10915;54.352;9.074;2023-08-06T05:09:36;15.60;99.90
21508;DHT22;10915;54.352;9.074;2023-08-06T05:12:04;15.50;99.90
21508;DHT22;10915;54.352;9.074;2023-08-06T05:14:30;15.50;99.90
21508;DHT22;10915;54.352;9.074;2023-08-06T05:20:22;15.20;99.90
21508;DHT22;10915;54.352;9.074;2023-08-06T05:22:47;15.10;99.90
21508;DHT22;10915;54.352;9.074;2023-08-06T05:25:13;15.10;99.90
21508;DHT22;10915;54.352;9.074;2023-08-06T05:27:40;15.10;99.90
21508;DHT22;10915;54.352;9.074;2023-08-06T05:30:06;15.10;99.90
21508;DHT22;10915;54.352;9.074;2023-08-06T05:32:31;15.10;99.90
21508;DHT22;10915;54.352;9.074;2023-08-06T05:34:57;15.20;99.90
21508;DHT22;10915;54.352;9.074;2023-08-06T05:37:23;15.10;99.90
21508;DHT22;10915;54.352;9.074;2023-08-06T05:39:48;15.10;99.90
21508;DHT22;10915;54.352;9.074;2023-08-06T05:42:14;15.20;99.90
21508;DHT22;10915;54.352;9.074;2023-08-06T05:44:39;15.20;99.90
21508;DHT22;10915;54.352;9.074;2023-08-06T05:47:05;15.30;99.90
21508;DHT22;10915;54.352;9.074;2023-08-06T05:49:31;15.40;99.90
21508;DHT22;10915;54.352;9.074;2023-08-06T05:51:56;15.40;99.90
21508;DHT22;10915;54.352;9.074;2023-08-06T05:54:22;15.40;99.90
21508;DHT22;10915;54.352;9.074;2023-08-06T05:56:47;15.40;99.90
21508;DHT22;10915;54.352;9.074;2023-08-06T05:59:13;15.40;99.90
21508;DHT22;10915;54.352;9.074;2023-08-06T06:01:39;15.40;99.90
21508;DHT22;10915;54.352;9.074;2023-08-06T06:04:04;15.40;99.90
21508;DHT22;10915;54.352;9.074;2023-08-06T06:06:30;15.40;99.90
21508;DHT22;10915;54.352;9.074;2023-08-06T06:08:56;15.40;99.90
21508;DHT22;10915;54.352;9.074;2023-08-06T06:11:21;15.40;99.90
21508;DHT22;10915;54.352;9.074;2023-08-06T06:13:51;15.40;99.90
21508;DHT22;10915;54.352;9.074;2023-08-06T06:16:17;15.50;99.90
21508;DHT22;10915;54.352;9.074;2023-08-06T06:18:43;15.50;99.90
21508;DHT22;10915;54.352;9.074;2023-08-06T06:21:10;15.50;99.90
21508;DHT22;10915;54.352;9.074;2023-08-06T06:23:35;15.50;99.90
21508;DHT22;10915;54.352;9.074;2023-08-06T06:26:01;15.50;99.90
21508;DHT22;10915;54.352;9.074;2023-08-06T06:28:27;15.60;99.90
21508;DHT22;10915;54.352;9.074;2023-08-06T06:30:52;15.60;99.90
21508;DHT22;10915;54.352;9.074;2023-08-06T06:33:18;15.60;99.90
21508;DHT22;10915;54.352;9.074;2023-08-06T06:35:43;15.60;99.90
21508;DHT22;10915;54.352;9.074;2023-08-06T06:38:09;15.70;99.90
21508;DHT22;10915;54.352;9.074;2023-08-06T06:40:34;15.70;99.90
21508;DHT22;10915;54.352;9.074;2023-08-06T06:43:00;15.80;99.90
21508;DHT22;10915;54.352;9.074;2023-08-06T06:45:26;15.80;99.90
21508;DHT22;10915;54.352;9.074;2023-08-06T06:47:51;15.90;99.90
21508;DHT22;10915;54.352;9.074;2023-08-06T06:50:17;15.90;99.90
21508;DHT22;10915;54.352;9.074;2023-08-06T06:52:42;16.00;99.90
21508;DHT22;10915;54.352;9.074;2023-08-06T06:55:08;16.00;99.90
21508;DHT22;10915;54.352;9.074;2023-08-06T06:57:34;16.00;99.90
21508;DHT22;10915;54.352;9.074;2023-08-06T06:59:59;16.00;99.90
21508;DHT22;10915;54.352;9.074;2023-08-06T07:02:25;16.00;99.90
21508;DHT22;10915;54.352;9.074;2023-08-06T07:04:51;16.00;99.90
21508;DHT22;10915;54.352;9.074;2023-08-06T07:07:16;16.10;99.90
21508;DHT22;10915;54.352;9.074;2023-08-06T07:09:42;16.10;99.90
21508;DHT22;10915;54.352;9.074;2023-08-06T07:12:08;16.10;99.90
21508;DHT22;10915;54.352;9.074;2023-08-06T07:14:33;16.10;99.90
21508;DHT22;10915;54.352;9.074;2023-08-06T07:16:59;16.20;99.90
21508;DHT22;10915;54.352;9.074;2023-08-06T07:19:24;16.20;99.90
21508;DHT22;10915;54.352;9.074;2023-08-06T07:21:50;16.20;99.90
21508;DHT22;10915;54.352;9.074;2023-08-06T07:24:16;16.20;99.90
21508;DHT22;10915;54.352;9.074;2023-08-06T07:26:41;16.20;99.90
21508;DHT22;10915;54.352;9.074;2023-08-06T07:29:07;16.20;99.90
21508;DHT22;10915;54.352;9.074;2023-08-06T07:31:33;16.20;99.90
21508;DHT22;10915;54.352;9.074;2023-08-06T07:33:58;16.20;99.90
21508;DHT22;10915;54.352;9.074;2023-08-06T07:36:24;16.20;99.90
21508;DHT22;10915;54.352;9.074;2023-08-06T07:38:50;16.20;99.90
21508;DHT22;10915;54.352;9.074;2023-08-06T07:41:21;16.30;99.90
21508;DHT22;10915;54.352;9.074;2023-08-06T07:43:47;16.30;99.90
21508;DHT22;10915;54.352;9.074;2023-08-06T07:46:12;16.30;99.90
21508;DHT22;10915;54.352;9.074;2023-08-06T07:48:39;16.30;99.90
21508;DHT22;10915;54.352;9.074;2023-08-06T07:51:04;16.40;99.90
21508;DHT22;10915;54.352;9.074;2023-08-06T07:53:30;16.50;99.90
21508;DHT22;10915;54.352;9.074;2023-08-06T07:55:56;16.50;99.90
21508;DHT22;10915;54.352;9.074;2023-08-06T07:58:23;16.50;99.90
21508;DHT22;10915;54.352;9.074;2023-08-06T08:00:49;16.50;99.90
21508;DHT22;10915;54.352;9.074;2023-08-06T08:03:16;16.50;99.90
21508;DHT22;10915;54.352;9.074;2023-08-06T08:05:42;16.50;99.90
21508;DHT22;10915;54.352;9.074;2023-08-06T08:08:08;16.60;99.90
21508;DHT22;10915;54.352;9.074;2023-08-06T08:10:34;16.60;99.90
21508;DHT22;10915;54.352;9.074;2023-08-06T08:13:03;16.60;99.90
21508;DHT22;10915;54.352;9.074;2023-08-06T08:15:31;16.70;99.90
21508;DHT22;10915;54.352;9.074;2023-08-06T08:17:57;16.70;99.90
21508;DHT22;10915;54.352;9.074;2023-08-06T08:20:23;16.80;99.90
21508;DHT22;10915;54.352;9.074;2023-08-06T08:22:49;16.80;99.90
21508;DHT22;10915;54.352;9.074;2023-08-06T08:25:16;16.80;99.90
21508;DHT22;10915;54.352;9.074;2023-08-06T08:27:42;16.80;99.90
21508;DHT22;10915;54.352;9.074;2023-08-06T08:30:08;16.80;99.90
21508;DHT22;10915;54.352;9.074;2023-08-06T08:32:33;16.80;99.90
21508;DHT22;10915;54.352;9.074;2023-08-06T08:34:59;16.90;99.90
21508;DHT22;10915;54.352;9.074;2023-08-06T08:37:24;16.90;99.90
21508;DHT22;10915;54.352;9.074;2023-08-06T08:39:50;16.90;99.90
21508;DHT22;10915;54.352;9.074;2023-08-06T08:42:16;16.90;99.90
21508;DHT22;10915;54.352;9.074;2023-08-06T08:44:42;17.00;99.90
21508;DHT22;10915;54.352;9.074;2023-08-06T08:47:10;17.00;99.90
21508;DHT22;10915;54.352;9.074;2023-08-06T08:49:36;17.10;99.90
21508;DHT22;10915;54.352;9.074;2023-08-06T08:52:03;17.00;99.90
21508;DHT22;10915;54.352;9.074;2023-08-06T08:54:32;17.00;99.90
21508;DHT22;10915;54.352;9.074;2023-08-06T08:56:59;17.10;99.90
21508;DHT22;10915;54.352;9.074;2023-08-06T08:59:26;17.00;99.90
21508;DHT22;10915;54.352;9.074;2023-08-06T09:01:53;17.00;99.90
21508;DHT22;10915;54.352;9.074;2023-08-06T09:04:20;17.10;99.90
21508;DHT22;10915;54.352;9.074;2023-08-06T09:06:50;17.10;99.90
21508;DHT22;10915;54.352;9.074;2023-08-06T09:09:31;17.10;99.90
21508;DHT22;10915;54.352;9.074;2023-08-06T09:12:01;17.10;99.90
21508;DHT22;10915;54.352;9.074;2023-08-06T09:14:27;17.10;99.90
21508;DHT22;10915;54.352;9.074;2023-08-06T09:16:54;17.10;99.90
21508;DHT22;10915;54.352;9.074;2023-08-06T09:19:20;17.20;99.90
21508;DHT22;10915;54.352;9.074;2023-08-06T09:21:46;17.20;99.90
21508;DHT22;10915;54.352;9.074;2023-08-06T09:24:14;17.20;99.90
21508;DHT22;10915;54.352;9.074;2023-08-06T09:26:43;17.30;99.90
21508;DHT22;10915;54.352;9.074;2023-08-06T09:29:09;17.20;99.90
21508;DHT22;10915;54.352;9.074;2023-08-06T09:31:45;17.20;99.90
21508;DHT22;10915;54.352;9.074;2023-08-06T09:34:22;17.30;99.90
21508;DHT22;10915;54.352;9.074;2023-08-06T09:36:49;17.30;99.90
21508;DHT22;10915;54.352;9.074;2023-08-06T09:39:29;17.30;99.90
21508;DHT22;10915;54.352;9.074;2023-08-06T09:42:01;17.30;99.90
21508;DHT22;10915;54.352;9.074;2023-08-06T09:44:30;17.30;99.90
21508;DHT22;10915;54.352;9.074;2023-08-06T09:46:57;17.30;99.90
21508;DHT22;10915;54.352;9.074;2023-08-06T09:51:58;17.10;99.90
21508;DHT22;10915;54.352;9.074;2023-08-06T09:54:26;17.10;99.90
21508;DHT22;10915;54.352;9.074;2023-08-06T09:56:53;17.10;99.90
21508;DHT22;10915;54.352;9.074;2023-08-06T09:59:19;17.00;99.90
21508;DHT22;10915;54.352;9.074;2023-08-06T10:01:45;17.10;99.90
21508;DHT22;10915;54.352;9.074;2023-08-06T10:04:13;17.10;99.90
21508;DHT22;10915;54.352;9.074;2023-08-06T10:06:42;17.20;99.90
21508;DHT22;10915;54.352;9.074;2023-08-06T10:09:08;17.20;99.90
21508;DHT22;10915;54.352;9.074;2023-08-06T10:11:36;17.30;99.90
21508;DHT22;10915;54.352;9.074;2023-08-06T10:14:26;17.30;99.90
21508;DHT22;10915;54.352;9.074;2023-08-06T10:16:52;17.40;99.90
21508;DHT22;10915;54.352;9.074;2023-08-06T10:19:20;17.30;99.90
21508;DHT22;10915;54.352;9.074;2023-08-06T10:22:14;17.30;99.90
21508;DHT22;10915;54.352;9.074;2023-08-06T10:24:50;17.30;99.90
21508;DHT22;10915;54.352;9.074;2023-08-06T10:27:30;17.30;99.90
21508;DHT22;10915;54.352;9.074;2023-08-06T10:30:20;17.20;99.90
21508;DHT22;10915;54.352;9.074;2023-08-06T10:32:53;17.30;99.90
21508;DHT22;10915;54.352;9.074;2023-08-06T10:35:37;17.20;99.90
21508;DHT22;10915;54.352;9.074;2023-08-06T10:38:04;17.20;99.90
21508;DHT22;10915;54.352;9.074;2023-08-06T10:40:31;17.00;99.90
21508;DHT22;10915;54.352;9.074;2023-08-06T10:43:01;16.90;99.90
21508;DHT22;10915;54.352;9.074;2023-08-06T10:45:27;16.80;99.90
21508;DHT22;10915;54.352;9.074;2023-08-06T10:47:55;16.80;99.90
21508;DHT22;10915;54.352;9.074;2023-08-06T10:50:24;16.70;99.90
21508;DHT22;10915;54.352;9.074;2023-08-06T10:52:51;16.70;99.90
21508;DHT22;10915;54.352;9.074;2023-08-06T10:55:28;16.60;99.90
21508;DHT22;10915;54.352;9.074;2023-08-06T10:57:54;16.60;99.90
21508;DHT22;10915;54.352;9.074;2023-08-06T11:00:22;16.50;99.90
21508;DHT22;10915;54.352;9.074;2023-08-06T11:02:52;16.50;99.90
21508;DHT22;10915;54.352;9.074;2023-08-06T11:05:18;16.50;99.90
21508;DHT22;10915;54.352;9.074;2023-08-06T11:07:44;16.40;99.90
21508;DHT22;10915;54.352;9.074;2023-08-06T11:10:12;16.40;99.90
21508;DHT22;10915;54.352;9.074;2023-08-06T11:12:38;16.40;99.90
21508;DHT22;10915;54.352;9.074;2023-08-06T11:15:05;16.30;99.90
21508;DHT22;10915;54.352;9.074;2023-08-06T11:17:32;16.20;99.90
21508;DHT22;10915;54.352;9.074;2023-08-06T11:20:04;16.20;99.90
21508;DHT22;10915;54.352;9.074;2023-08-06T11:25:22;16.20;99.90
21508;DHT22;10915;54.352;9.074;2023-08-06T11:28:13;16.20;99.90
21508;DHT22;10915;54.352;9.074;2023-08-06T11:57:57;17.00;99.90
21508;DHT22;10915;54.352;9.074;2023-08-06T12:00:38;17.10;99.90
21508;DHT22;10915;54.352;9.074;2023-08-06T12:06:28;17.30;99.90
21508;DHT22;10915;54.352;9.074;2023-08-06T12:09:18;17.40;99.90
21508;DHT22;10915;54.352;9.074;2023-08-06T12:11:59;17.40;99.90
21508;DHT22;10915;54.352;9.074;2023-08-06T12:15:04;17.50;99.90
21508;DHT22;10915;54.352;9.074;2023-08-06T12:17:51;17.70;99.90
21508;DHT22;10915;54.352;9.074;2023-08-06T12:24:16;17.60;99.90
21508;DHT22;10915;54.352;9.074;2023-08-06T12:30:20;17.70;99.90
21508;DHT22;10915;54.352;9.074;2023-08-06T12:33:13;17.80;99.90
21508;DHT22;10915;54.352;9.074;2023-08-06T12:39:23;17.80;99.90
21508;DHT22;10915;54.352;9.074;2023-08-06T12:42:19;17.80;99.90
21508;DHT22;10915;54.352;9.074;2023-08-06T12:51:41;17.90;99.90
21508;DHT22;10915;54.352;9.074;2023-08-06T12:54:13;18.00;99.90
21508;DHT22;10915;54.352;9.074;2023-08-06T13:03:48;18.00;99.90
21508;DHT22;10915;54.352;9.074;2023-08-06T13:06:52;18.20;99.90
21508;DHT22;10915;54.352;9.074;2023-08-06T13:09:31;18.10;99.90
21508;DHT22;10915;54.352;9.074;2023-08-06T13:12:11;18.20;99.90
21508;DHT22;10915;54.352;9.074;2023-08-06T13:15:09;18.30;99.90
21508;DHT22;10915;54.352;9.074;2023-08-06T13:17:35;18.40;99.90
21508;DHT22;10915;54.352;9.074;2023-08-06T13:20:48;18.50;99.90
21508;DHT22;10915;54.352;9.074;2023-08-06T13:23:26;18.60;99.90
21508;DHT22;10915;54.352;9.074;2023-08-06T13:25:55;18.50;99.90
21508;DHT22;10915;54.352;9.074;2023-08-06T13:28:23;18.50;99.90
21508;DHT22;10915;54.352;9.074;2023-08-06T13:30:53;18.60;99.90
21508;DHT22;10915;54.352;9.074;2023-08-06T13:33:19;18.60;99.90
21508;DHT22;10915;54.352;9.074;2023-08-06T13:35:45;18.60;99.90
21508;DHT22;10915;54.352;9.074;2023-08-06T13:38:17;18.60;99.90
21508;DHT22;10915;54.352;9.074;2023-08-06T13:40:46;18.60;99.90
21508;DHT22;10915;54.352;9.074;2023-08-06T13:46:19;18.70;99.90
21508;DHT22;10915;54.352;9.074;2023-08-06T13:48:54;18.80;99.90
21508;DHT22;10915;54.352;9.074;2023-08-06T13:51:26;18.90;99.90
21508;DHT22;10915;54.352;9.074;2023-08-06T13:53:57;18.90;99.90
21508;DHT22;10915;54.352;9.074;2023-08-06T14:00:42;19.20;99.90
21508;DHT22;10915;54.352;9.074;2023-08-06T14:06:44;19.50;99.90
21508;DHT22;10915;54.352;9.074;2023-08-06T14:09:31;19.40;99.90
21508;DHT22;10915;54.352;9.074;2023-08-06T14:16:11;19.20;99.90
21508;DHT22;10915;54.352;9.074;2023-08-06T14:18:40;19.20;99.90
21508;DHT22;10915;54.352;9.074;2023-08-06T14:21:06;19.20;99.90
21508;DHT22;10915;54.352;9.074;2023-08-06T14:23:38;19.20;99.90
21508;DHT22;10915;54.352;9.074;2023-08-06T14:26:06;19.30;99.90
21508;DHT22;10915;54.352;9.074;2023-08-06T14:31:30;19.20;99.90
21508;DHT22;10915;54.352;9.074;2023-08-06T14:33:55;19.40;99.90
21508;DHT22;10915;54.352;9.074;2023-08-06T14:36:30;19.40;99.90
21508;DHT22;10915;54.352;9.074;2023-08-06T14:39:02;19.30;99.90
21508;DHT22;10915;54.352;9.074;2023-08-06T14:41:30;19.30;99.90
21508;DHT22;10915;54.352;9.074;2023-08-06T14:43:59;19.10;99.90
21508;DHT22;10915;54.352;9.074;2023-08-06T14:46:25;19.10;99.90
21508;DHT22;10915;54.352;9.074;2023-08-06T14:48:53;19.20;99.90
21508;DHT22;10915;54.352;9.074;2023-08-06T14:51:21;19.30;99.90
21508;DHT22;10915;54.352;9.074;2023-08-06T14:53:47;19.50;99.90
21508;DHT22;10915;54.352;9.074;2023-08-06T14:56:25;19.50;99.90
21508;DHT22;10915;54.352;9.074;2023-08-06T14:59:04;19.60;99.90
21508;DHT22;10915;54.352;9.074;2023-08-06T15:01:32;19.80;99.90
21508;DHT22;10915;54.352;9.074;2023-08-06T15:04:03;20.00;99.90
21508;DHT22;10915;54.352;9.074;2023-08-06T15:06:32;20.10;99.90
21508;DHT22;10915;54.352;9.074;2023-08-06T15:09:03;19.80;99.90
21508;DHT22;10915;54.352;9.074;2023-08-06T15:11:29;19.80;99.90
21508;DHT22;10915;54.352;9.074;2023-08-06T15:13:54;19.80;99.90
21508;DHT22;10915;54.352;9.074;2023-08-06T15:16:20;19.90;99.90
21508;DHT22;10915;54.352;9.074;2023-08-06T15:18:51;20.10;99.90
21508;DHT22;10915;54.352;9.074;2023-08-06T15:21:19;20.10;99.90
21508;DHT22;10915;54.352;9.074;2023-08-06T15:23:45;20.10;99.90
21508;DHT22;10915;54.352;9.074;2023-08-06T15:26:11;20.10;99.90
21508;DHT22;10915;54.352;9.074;2023-08-06T15:28:37;20.10;99.90
21508;DHT22;10915;54.352;9.074;2023-08-06T15:31:02;20.10;99.90
21508;DHT22;10915;54.352;9.074;2023-08-06T15:33:31;20.30;99.90
21508;DHT22;10915;54.352;9.074;2023-08-06T15:35:59;20.10;99.90
21508;DHT22;10915;54.352;9.074;2023-08-06T15:38:34;20.00;99.90
21508;DHT22;10915;54.352;9.074;2023-08-06T15:41:00;20.20;99.90
21508;DHT22;10915;54.352;9.074;2023-08-06T15:43:26;20.20;99.90
21508;DHT22;10915;54.352;9.074;2023-08-06T15:45:51;20.30;99.90
21508;DHT22;10915;54.352;9.074;2023-08-06T15:48:17;20.20;99.90
21508;DHT22;10915;54.352;9.074;2023-08-06T15:50:43;20.00;99.90
21508;DHT22;10915;54.352;9.074;2023-08-06T15:53:08;19.90;99.90
21508;DHT22;10915;54.352;9.074;2023-08-06T15:55:40;19.80;99.90
21508;DHT22;10915;54.352;9.074;2023-08-06T15:58:06;19.70;99.90
21508;DHT22;10915;54.352;9.074;2023-08-06T16:00:33;19.60;99.90
21508;DHT22;10915;54.352;9.074;2023-08-06T16:03:01;19.50;99.90
21508;DHT22;10915;54.352;9.074;2023-08-06T16:05:37;19.30;99.90
21508;DHT22;10915;54.352;9.074;2023-08-06T16:08:07;19.20;99.90
21508;DHT22;10915;54.352;9.074;2023-08-06T16:10:37;19.00;99.90
21508;DHT22;10915;54.352;9.074;2023-08-06T16:13:05;18.70;99.90
21508;DHT22;10915;54.352;9.074;2023-08-06T16:15:31;18.50;99.90
21508;DHT22;10915;54.352;9.074;2023-08-06T16:17:57;18.30;99.90
21508;DHT22;10915;54.352;9.074;2023-08-06T16:20:22;18.20;99.90
21508;DHT22;10915;54.352;9.074;2023-08-06T16:22:51;18.20;99.90
21508;DHT22;10915;54.352;9.074;2023-08-06T16:25:28;18.10;99.90
21508;DHT22;10915;54.352;9.074;2023-08-06T16:28:01;18.20;99.90
21508;DHT22;10915;54.352;9.074;2023-08-06T16:33:49;18.20;99.90
21508;DHT22;10915;54.352;9.074;2023-08-06T16:36:20;18.30;99.90
21508;DHT22;10915;54.352;9.074;2023-08-06T16:38:46;18.30;99.90
21508;DHT22;10915;54.352;9.074;2023-08-06T16:41:15;18.40;99.90
21508;DHT22;10915;54.352;9.074;2023-08-06T16:43:40;18.50;99.90
21508;DHT22;10915;54.352;9.074;2023-08-06T16:46:08;18.60;99.90
21508;DHT22;10915;54.352;9.074;2023-08-06T16:48:34;18.60;99.90
21508;DHT22;10915;54.352;9.074;2023-08-06T16:51:02;18.60;99.90
21508;DHT22;10915;54.352;9.074;2023-08-06T16:53:42;18.50;99.90
21508;DHT22;10915;54.352;9.074;2023-08-06T16:56:17;18.50;99.90
21508;DHT22;10915;54.352;9.074;2023-08-06T16:58:43;18.50;99.90
21508;DHT22;10915;54.352;9.074;2023-08-06T17:01:08;18.60;99.90
21508;DHT22;10915;54.352;9.074;2023-08-06T17:03:34;18.70;99.90
21508;DHT22;10915;54.352;9.074;2023-08-06T17:06:03;18.80;99.90
21508;DHT22;10915;54.352;9.074;2023-08-06T17:08:30;18.90;99.90
21508;DHT22;10915;54.352;9.074;2023-08-06T17:11:00;19.10;99.90
21508;DHT22;10915;54.352;9.074;2023-08-06T17:13:30;19.20;99.90
21508;DHT22;10915;54.352;9.074;2023-08-06T17:15:56;19.20;99.90
21508;DHT22;10915;54.352;9.074;2023-08-06T17:18:22;19.30;99.90
21508;DHT22;10915;54.352;9.074;2023-08-06T17:20:48;19.30;99.90
21508;DHT22;10915;54.352;9.074;2023-08-06T17:23:14;19.40;99.90
21508;DHT22;10915;54.352;9.074;2023-08-06T17:25:41;19.50;99.90
21508;DHT22;10915;54.352;9.074;2023-08-06T17:28:06;19.50;99.90
21508;DHT22;10915;54.352;9.074;2023-08-06T17:30:32;19.50;99.90
21508;DHT22;10915;54.352;9.074;2023-08-06T17:32:58;19.50;99.90
21508;DHT22;10915;54.352;9.074;2023-08-06T17:35:23;19.50;99.90
21508;DHT22;10915;54.352;9.074;2023-08-06T17:37:49;19.40;99.90
21508;DHT22;10915;54.352;9.074;2023-08-06T17:40:15;19.30;99.90
21508;DHT22;10915;54.352;9.074;2023-08-06T17:42:40;19.00;99.90
21508;DHT22;10915;54.352;9.074;2023-08-06T17:45:06;18.90;99.90
21508;DHT22;10915;54.352;9.074;2023-08-06T17:47:32;18.80;99.90
21508;DHT22;10915;54.352;9.074;2023-08-06T17:49:57;18.80;99.90
21508;DHT22;10915;54.352;9.074;2023-08-06T17:52:23;18.80;99.90
21508;DHT22;10915;54.352;9.074;2023-08-06T17:54:49;18.80;99.90
21508;DHT22;10915;54.352;9.074;2023-08-06T17:57:14;18.80;99.90
21508;DHT22;10915;54.352;9.074;2023-08-06T17:59:40;18.70;99.90
21508;DHT22;10915;54.352;9.074;2023-08-06T18:02:06;18.60;99.90
21508;DHT22;10915;54.352;9.074;2023-08-06T18:04:32;18.50;99.90
21508;DHT22;10915;54.352;9.074;2023-08-06T18:06:57;18.50;99.90
21508;DHT22;10915;54.352;9.074;2023-08-06T18:09:23;18.40;99.90
21508;DHT22;10915;54.352;9.074;2023-08-06T18:11:48;18.30;99.90
21508;DHT22;10915;54.352;9.074;2023-08-06T18:14:14;18.30;99.90
21508;DHT22;10915;54.352;9.074;2023-08-06T18:16:40;18.30;99.90
21508;DHT22;10915;54.352;9.074;2023-08-06T18:19:05;18.20;99.90
21508;DHT22;10915;54.352;9.074;2023-08-06T18:21:31;18.20;99.90
21508;DHT22;10915;54.352;9.074;2023-08-06T18:23:56;18.10;99.90
21508;DHT22;10915;54.352;9.074;2023-08-06T18:26:22;18.20;99.90
21508;DHT22;10915;54.352;9.074;2023-08-06T18:28:47;18.00;99.90
21508;DHT22;10915;54.352;9.074;2023-08-06T18:31:13;18.10;99.90
21508;DHT22;10915;54.352;9.074;2023-08-06T18:33:40;18.00;99.90
21508;DHT22;10915;54.352;9.074;2023-08-06T18:36:06;18.00;99.90
21508;DHT22;10915;54.352;9.074;2023-08-06T18:38:32;18.00;99.90
21508;DHT22;10915;54.352;9.074;2023-08-06T18:41:01;17.90;99.90
21508;DHT22;10915;54.352;9.074;2023-08-06T18:43:27;17.90;99.90
21508;DHT22;10915;54.352;9.074;2023-08-06T18:45:55;17.80;99.90
21508;DHT22;10915;54.352;9.074;2023-08-06T18:48:20;17.80;99.90
21508;DHT22;10915;54.352;9.074;2023-08-06T18:50:46;17.70;99.90
21508;DHT22;10915;54.352;9.074;2023-08-06T18:53:12;17.60;99.90
21508;DHT22;10915;54.352;9.074;2023-08-06T18:55:46;17.60;99.90
21508;DHT22;10915;54.352;9.074;2023-08-06T18:58:12;17.50;99.90
21508;DHT22;10915;54.352;9.074;2023-08-06T19:00:39;17.50;99.90
21508;DHT22;10915;54.352;9.074;2023-08-06T19:03:05;17.50;99.90
21508;DHT22;10915;54.352;9.074;2023-08-06T19:05:30;17.50;99.90
21508;DHT22;10915;54.352;9.074;2023-08-06T19:07:56;17.40;99.90
21508;DHT22;10915;54.352;9.074;2023-08-06T19:10:22;17.40;99.90
21508;DHT22;10915;54.352;9.074;2023-08-06T19:12:49;17.40;99.90
21508;DHT22;10915;54.352;9.074;2023-08-06T19:15:15;17.40;99.90
21508;DHT22;10915;54.352;9.074;2023-08-06T19:17:42;17.40;99.90
21508;DHT22;10915;54.352;9.074;2023-08-06T19:20:09;17.50;99.90
21508;DHT22;10915;54.352;9.074;2023-08-06T19:22:35;17.60;99.90
21508;DHT22;10915;54.352;9.074;2023-08-06T19:25:01;17.50;99.90
21508;DHT22;10915;54.352;9.074;2023-08-06T19:27:26;17.60;99.90
21508;DHT22;10915;54.352;9.074;2023-08-06T19:29:52;17.60;99.90
21508;DHT22;10915;54.352;9.074;2023-08-06T19:32:18;17.70;99.90
21508;DHT22;10915;54.352;9.074;2023-08-06T19:34:44;17.70;99.90
21508;DHT22;10915;54.352;9.074;2023-08-06T19:37:09;17.70;99.90
21508;DHT22;10915;54.352;9.074;2023-08-06T19:39:35;17.70;99.90
21508;DHT22;10915;54.352;9.074;2023-08-06T19:42:01;17.60;99.90
21508;DHT22;10915;54.352;9.074;2023-08-06T19:44:26;17.60;99.90
21508;DHT22;10915;54.352;9.074;2023-08-06T19:46:52;17.60;99.90
21508;DHT22;10915;54.352;9.074;2023-08-06T19:49:18;17.60;99.90
21508;DHT22;10915;54.352;9.074;2023-08-06T19:51:43;17.60;99.90
21508;DHT22;10915;54.352;9.074;2023-08-06T19:54:12;17.50;99.90
21508;DHT22;10915;54.352;9.074;2023-08-06T19:56:38;17.40;99.90
21508;DHT22;10915;54.352;9.074;2023-08-06T19:59:03;17.40;99.90
21508;DHT22;10915;54.352;9.074;2023-08-06T20:01:29;17.30;99.90
21508;DHT22;10915;54.352;9.074;2023-08-06T20:03:56;17.30;99.90
21508;DHT22;10915;54.352;9.074;2023-08-06T20:06:22;17.20;99.90
21508;DHT22;10915;54.352;9.074;2023-08-06T20:08:53;17.20;99.90